createdAt,value
2023-01-12T00:00:05.771Z,11.90
2023-01-12T00:05:15.276Z,11.90
2023-01-12T00:10:17.570Z,12.00
2023-01-12T00:15:39.996Z,12.00
2023-01-12T00:20:48.255Z,12.00
2023-01-12T00:25:51.852Z,12.00
2023-01-12T00:30:59.427Z,12.00
2023-01-12T00:36:13.868Z,12.00
2023-01-12T00:41:35.989Z,12.00
2023-01-12T00:46:38.178Z,12.00
2023-01-12T00:56:42.878Z,11.90
2023-01-12T01:06:48.581Z,12.00
2023-01-12T01:11:50.724Z,12.00
2023-01-12T01:16:52.925Z,12.00
2023-01-12T01:26:57.538Z,12.00
2023-01-12T01:31:59.605Z,12.10
2023-01-12T01:37:02.133Z,12.10
2023-01-12T01:42:04.322Z,12.10
2023-01-12T01:47:26.537Z,12.10
2023-01-12T01:52:30.842Z,12.10
2023-01-12T02:02:45.740Z,12.20
2023-01-12T02:07:49.704Z,12.40
2023-01-12T02:13:10.469Z,12.20
2023-01-12T02:18:24.951Z,12.30
2023-01-12T02:24:19.304Z,12.30
2023-01-12T02:29:54.805Z,12.30
2023-01-12T02:34:59.680Z,12.30
2023-01-12T02:40:07.744Z,12.30
2023-01-12T02:45:21.780Z,12.40
2023-01-12T02:50:49.952Z,12.30
2023-01-12T02:55:53.483Z,12.40
2023-01-12T03:00:58.080Z,12.40
2023-01-12T03:06:00.743Z,12.40
2023-01-12T03:11:08.736Z,12.40
2023-01-12T03:16:13.118Z,12.40
2023-01-12T03:21:34.663Z,12.40
2023-01-12T03:26:40.163Z,12.40
2023-01-12T03:31:42.598Z,12.50
2023-01-12T03:37:07.949Z,12.40
2023-01-12T03:42:30.902Z,12.40
2023-01-12T03:52:39.425Z,12.40
2023-01-12T04:02:45.207Z,12.40
2023-01-12T04:07:47.346Z,12.40
2023-01-12T04:12:49.487Z,12.40
2023-01-12T04:17:51.628Z,12.40
2023-01-12T04:28:01.740Z,12.40
2023-01-12T04:33:08.186Z,12.50
2023-01-12T04:38:10.540Z,12.40
2023-01-12T04:43:12.628Z,12.50
2023-01-12T04:48:16.443Z,12.50
2023-01-12T04:53:18.800Z,12.50
2023-01-12T04:58:20.876Z,12.50
2023-01-12T05:03:23.002Z,12.50
2023-01-12T05:08:43.568Z,12.50
2023-01-12T05:13:45.695Z,12.50
2023-01-12T05:18:47.845Z,12.50
2023-01-12T05:23:51.687Z,12.50
2023-01-12T05:28:53.739Z,12.50
2023-01-12T05:33:55.844Z,12.50
2023-01-12T05:38:57.981Z,12.50
2023-01-12T05:44:00.067Z,12.50
2023-01-12T05:49:02.486Z,12.50
2023-01-12T05:54:04.724Z,12.50
2023-01-12T06:04:09.413Z,12.40
2023-01-12T06:09:11.470Z,12.40
2023-01-12T06:14:13.605Z,12.40
2023-01-12T06:19:15.807Z,12.50
2023-01-12T06:34:23.094Z,12.50
2023-01-12T06:44:27.705Z,12.70
2023-01-12T06:49:29.867Z,12.60
2023-01-12T06:54:32.006Z,12.60
2023-01-12T07:04:37.203Z,12.60
2023-01-12T07:09:39.434Z,12.60
2023-01-12T07:14:41.641Z,12.60
2023-01-12T07:19:43.827Z,12.60
2023-01-12T07:24:45.988Z,12.60
2023-01-12T07:29:48.787Z,12.60
2023-01-12T07:34:50.901Z,12.80
2023-01-12T07:39:52.959Z,12.60
2023-01-12T07:44:55.185Z,12.60
2023-01-12T07:49:57.361Z,12.60
2023-01-12T07:54:59.506Z,12.60
2023-01-12T08:00:01.904Z,12.50
2023-01-12T08:05:04.325Z,12.50
2023-01-12T08:10:07.126Z,12.50
2023-01-12T08:20:32.090Z,12.60
2023-01-12T08:25:38.595Z,12.50
2023-01-12T08:30:40.953Z,12.50
2023-01-12T08:35:46.184Z,12.50
2023-01-12T08:41:06.749Z,12.50
2023-01-12T08:46:08.940Z,12.60
2023-01-12T08:51:10.968Z,12.60
2023-01-12T08:56:13.180Z,12.60
2023-01-12T09:01:16.937Z,12.70
2023-01-12T09:06:25.987Z,12.60
2023-01-12T09:11:29.622Z,12.70
2023-01-12T09:16:32.679Z,12.70
2023-01-12T09:21:38.366Z,12.70
2023-01-12T09:26:45.585Z,12.70
2023-01-12T09:31:47.728Z,12.80
2023-01-12T09:36:52.301Z,12.80
2023-01-12T09:42:13.334Z,12.80
2023-01-12T09:47:21.375Z,12.90
2023-01-12T09:52:27.637Z,13.00
2023-01-12T09:58:06.454Z,13.00
2023-01-12T10:03:11.689Z,13.00
2023-01-12T10:08:31.614Z,13.00
2023-01-12T10:13:46.776Z,13.10
2023-01-12T10:18:54.551Z,13.20
2023-01-12T10:23:57.207Z,13.20
2023-01-12T10:29:02.594Z,13.20
2023-01-12T10:34:11.024Z,13.30
2023-01-12T10:39:33.476Z,13.30
2023-01-12T10:44:35.579Z,13.40
2023-01-12T10:49:38.267Z,13.40
2023-01-12T10:54:41.348Z,13.50
2023-01-12T10:59:55.614Z,13.50
2023-01-12T11:04:57.697Z,13.50
2023-01-12T11:10:20.508Z,13.50
2023-01-12T11:15:22.740Z,13.50
2023-01-12T11:20:50.684Z,13.60
2023-01-12T11:25:54.127Z,13.70
2023-01-12T11:31:01.639Z,13.60
2023-01-12T11:36:08.924Z,13.70
2023-01-12T11:41:23.382Z,13.70
2023-01-12T11:46:46.579Z,13.80
2023-01-12T11:51:53.382Z,13.80
2023-01-12T11:56:58.213Z,13.80
2023-01-12T12:02:11.792Z,13.90
2023-01-12T12:07:27.033Z,13.90
2023-01-12T12:12:44.614Z,14.00
2023-01-12T12:18:08.350Z,14.00
2023-01-12T12:23:31.680Z,13.90
2023-01-12T12:28:57.118Z,13.90
2023-01-12T12:34:21.269Z,14.00
2023-01-12T12:39:35.117Z,14.00
2023-01-12T12:45:17.879Z,14.10
2023-01-12T12:50:40.384Z,14.30
2023-01-12T12:55:43.272Z,14.40
2023-01-12T13:05:53.487Z,14.50
2023-01-12T13:10:58.755Z,14.30
2023-01-12T13:16:33.156Z,14.40
2023-01-12T13:21:57.822Z,14.40
2023-01-12T13:27:01.868Z,14.30
2023-01-12T13:32:35.334Z,14.30
2023-01-12T13:37:48.080Z,14.30
2023-01-12T13:43:09.396Z,14.30
2023-01-12T13:48:13.108Z,14.20
2023-01-12T13:53:28.999Z,14.20
2023-01-12T13:58:42.780Z,14.20
2023-01-12T14:03:53.672Z,14.20
2023-01-12T14:14:59.576Z,14.00
2023-01-12T14:20:01.794Z,14.00
2023-01-12T14:25:25.334Z,14.00
2023-01-12T14:30:27.980Z,14.00
2023-01-12T14:35:31.347Z,13.90
2023-01-12T14:40:34.481Z,13.90
2023-01-12T14:45:55.800Z,13.90
2023-01-12T14:51:24.061Z,13.90
2023-01-12T14:56:38.035Z,13.90
2023-01-12T15:01:40.852Z,13.90
2023-01-12T15:06:46.261Z,13.90
2023-01-12T15:11:48.368Z,13.90
2023-01-12T15:17:10.586Z,13.90
2023-01-12T15:22:31.407Z,13.90
2023-01-12T15:27:33.688Z,13.90
2023-01-12T15:32:46.797Z,13.90
2023-01-12T15:37:51.090Z,13.90
2023-01-12T15:42:53.666Z,13.90
2023-01-12T15:47:56.512Z,13.80
2023-01-12T15:53:00.472Z,13.80
2023-01-12T15:58:02.760Z,13.80
2023-01-12T16:03:06.192Z,13.80
2023-01-12T16:08:08.379Z,13.70
2023-01-12T16:13:12.003Z,13.70
2023-01-12T16:18:14.177Z,13.60
2023-01-12T16:23:16.657Z,13.60
2023-01-12T16:28:18.775Z,13.60
2023-01-12T16:33:21.859Z,13.60
2023-01-12T16:38:24.328Z,13.70
2023-01-12T16:43:28.137Z,13.70
2023-01-12T16:48:31.835Z,13.60
2023-01-12T16:53:34.014Z,13.70
2023-01-12T16:58:37.172Z,13.60
2023-01-12T17:03:41.499Z,13.60
2023-01-12T17:08:44.513Z,13.70
2023-01-12T17:13:55.711Z,13.60
2023-01-12T17:18:58.081Z,13.50
2023-01-12T17:24:00.287Z,13.50
2023-01-12T17:29:02.832Z,13.50
2023-01-12T17:34:05.991Z,13.50
2023-01-12T17:39:09.301Z,13.50
2023-01-12T17:44:11.602Z,13.50
2023-01-12T17:49:14.227Z,13.60
2023-01-12T17:54:16.840Z,13.40
2023-01-12T17:59:22.831Z,13.50
2023-01-12T18:04:25.004Z,13.50
2023-01-12T18:09:28.030Z,13.50
2023-01-12T18:14:30.198Z,13.60
2023-01-12T18:19:33.346Z,13.60
2023-01-12T18:24:35.980Z,13.60
2023-01-12T18:29:38.175Z,13.60
2023-01-12T18:34:47.021Z,13.70
2023-01-12T18:39:49.738Z,13.70
2023-01-12T18:44:51.918Z,13.70
2023-01-12T18:49:57.532Z,13.70
2023-01-12T18:55:00.187Z,13.60
2023-01-12T19:00:12.334Z,13.60
2023-01-12T19:05:16.973Z,13.60
2023-01-12T19:10:19.060Z,13.60
2023-01-12T19:15:39.723Z,13.60
2023-01-12T19:26:02.885Z,13.50
2023-01-12T19:31:09.761Z,13.60
2023-01-12T19:36:16.003Z,13.50
2023-01-12T19:41:36.518Z,13.50
2023-01-12T19:46:39.010Z,13.50
2023-01-12T19:56:46.201Z,13.50
2023-01-12T20:06:53.186Z,13.50
2023-01-12T20:11:55.508Z,13.50
2023-01-12T20:16:57.988Z,13.50
2023-01-12T20:22:00.459Z,13.50
2023-01-12T20:27:02.694Z,13.50
2023-01-12T20:32:06.289Z,13.50
2023-01-12T20:37:08.571Z,13.60
2023-01-12T20:42:10.704Z,13.60
2023-01-12T20:47:12.840Z,13.60
2023-01-12T20:52:14.950Z,13.60
2023-01-12T20:57:17.635Z,13.60
2023-01-12T21:02:21.006Z,13.70
2023-01-12T21:07:23.373Z,13.70
2023-01-12T21:12:27.544Z,13.70
2023-01-12T21:17:31.068Z,13.70
2023-01-12T21:22:34.430Z,13.60
2023-01-12T21:27:36.742Z,13.70
2023-01-12T21:32:38.879Z,13.60
2023-01-12T21:43:02.404Z,13.50
2023-01-12T21:48:05.422Z,13.50
2023-01-12T21:53:08.327Z,13.40
2023-01-12T21:58:10.479Z,13.40
2023-01-12T22:03:12.627Z,13.40
2023-01-12T22:08:14.869Z,13.50
2023-01-12T22:13:17.748Z,13.40
2023-01-12T22:18:20.848Z,13.50
2023-01-12T22:23:23.010Z,13.50
2023-01-12T22:28:25.071Z,13.50
2023-01-12T22:33:27.188Z,13.50
2023-01-12T22:38:29.363Z,13.50
2023-01-12T22:48:34.005Z,13.60
2023-01-12T22:53:36.585Z,13.60
2023-01-12T22:58:39.413Z,13.50
2023-01-12T23:03:42.478Z,13.60
2023-01-12T23:08:45.226Z,13.50
2023-01-12T23:13:47.797Z,13.60
2023-01-12T23:18:50.382Z,13.60
2023-01-12T23:23:58.263Z,13.60
2023-01-12T23:29:02.782Z,13.60
2023-01-12T23:34:04.982Z,13.60
2023-01-12T23:39:08.717Z,13.70
2023-01-12T23:44:10.827Z,13.60
2023-01-12T23:49:12.951Z,13.60
2023-01-12T23:54:17.524Z,13.70
